sensor_id;sensor_type;location;lat;lon;timestamp;P1;durP1;ratioP1;P2;durP2;ratioP2
48215;SDS011;34005;48.844;10.098;2023-02-28T00:01:07;3.65;;;2.78;;
48215;SDS011;34005;48.844;10.098;2023-02-28T00:03:35;3.35;;;2.83;;
48215;SDS011;34005;48.844;10.098;2023-02-28T00:06:02;3.63;;;2.72;;
48215;SDS011;34005;48.844;10.098;2023-02-28T00:08:30;3.35;;;2.60;;
48215;SDS011;34005;48.844;10.098;2023-02-28T00:11:00;5.65;;;3.30;;
48215;SDS011;34005;48.844;10.098;2023-02-28T00:13:28;3.70;;;2.60;;
48215;SDS011;34005;48.844;10.098;2023-02-28T00:15:59;6.88;;;2.85;;
48215;SDS011;34005;48.844;10.098;2023-02-28T00:18:29;3.67;;;2.67;;
48215;SDS011;34005;48.844;10.098;2023-02-28T00:20:57;4.93;;;2.97;;
48215;SDS011;34005;48.844;10.098;2023-02-28T00:23:25;4.78;;;3.05;;
48215;SDS011;34005;48.844;10.098;2023-02-28T00:25:53;4.45;;;3.45;;
48215;SDS011;34005;48.844;10.098;2023-02-28T00:28:21;4.70;;;3.30;;
48215;SDS011;34005;48.844;10.098;2023-02-28T00:30:48;4.28;;;2.95;;
48215;SDS011;34005;48.844;10.098;2023-02-28T00:33:16;6.20;;;3.60;;
48215;SDS011;34005;48.844;10.098;2023-02-28T00:35:45;3.78;;;2.65;;
48215;SDS011;34005;48.844;10.098;2023-02-28T00:38:14;5.10;;;3.50;;
48215;SDS011;34005;48.844;10.098;2023-02-28T00:40:42;3.92;;;3.38;;
48215;SDS011;34005;48.844;10.098;2023-02-28T00:43:10;5.47;;;3.50;;
48215;SDS011;34005;48.844;10.098;2023-02-28T00:45:38;6.25;;;3.95;;
48215;SDS011;34005;48.844;10.098;2023-02-28T00:48:05;6.47;;;3.50;;
48215;SDS011;34005;48.844;10.098;2023-02-28T00:50:33;4.40;;;3.25;;
48215;SDS011;34005;48.844;10.098;2023-02-28T00:53:02;4.50;;;3.83;;
48215;SDS011;34005;48.844;10.098;2023-02-28T00:55:29;6.25;;;3.50;;
48215;SDS011;34005;48.844;10.098;2023-02-28T00:57:57;4.85;;;3.88;;
48215;SDS011;34005;48.844;10.098;2023-02-28T01:00:24;4.97;;;3.65;;
48215;SDS011;34005;48.844;10.098;2023-02-28T01:02:52;3.97;;;3.53;;
48215;SDS011;34005;48.844;10.098;2023-02-28T01:05:19;6.72;;;4.35;;
48215;SDS011;34005;48.844;10.098;2023-02-28T01:07:47;7.00;;;4.03;;
48215;SDS011;34005;48.844;10.098;2023-02-28T01:10:16;3.53;;;3.22;;
48215;SDS011;34005;48.844;10.098;2023-02-28T01:12:44;4.70;;;3.50;;
48215;SDS011;34005;48.844;10.098;2023-02-28T01:15:11;4.47;;;3.33;;
48215;SDS011;34005;48.844;10.098;2023-02-28T01:17:39;4.97;;;3.78;;
48215;SDS011;34005;48.844;10.098;2023-02-28T01:20:07;4.45;;;3.67;;
48215;SDS011;34005;48.844;10.098;2023-02-28T01:22:36;6.35;;;4.10;;
48215;SDS011;34005;48.844;10.098;2023-02-28T01:25:04;5.78;;;4.10;;
48215;SDS011;34005;48.844;10.098;2023-02-28T01:27:34;6.13;;;3.72;;
48215;SDS011;34005;48.844;10.098;2023-02-28T01:30:01;5.07;;;3.95;;
48215;SDS011;34005;48.844;10.098;2023-02-28T01:32:29;7.05;;;3.80;;
48215;SDS011;34005;48.844;10.098;2023-02-28T01:34:57;4.93;;;3.67;;
48215;SDS011;34005;48.844;10.098;2023-02-28T01:37:24;5.00;;;3.80;;
48215;SDS011;34005;48.844;10.098;2023-02-28T01:39:52;5.55;;;3.53;;
48215;SDS011;34005;48.844;10.098;2023-02-28T01:42:19;5.55;;;4.03;;
48215;SDS011;34005;48.844;10.098;2023-02-28T01:44:57;6.47;;;4.22;;
48215;SDS011;34005;48.844;10.098;2023-02-28T01:47:29;7.30;;;4.28;;
48215;SDS011;34005;48.844;10.098;2023-02-28T01:50:03;3.80;;;3.10;;
48215;SDS011;34005;48.844;10.098;2023-02-28T01:52:33;5.13;;;3.75;;
48215;SDS011;34005;48.844;10.098;2023-02-28T01:55:02;5.43;;;3.75;;
48215;SDS011;34005;48.844;10.098;2023-02-28T01:57:34;5.00;;;4.33;;
48215;SDS011;34005;48.844;10.098;2023-02-28T02:00:08;5.60;;;3.67;;
48215;SDS011;34005;48.844;10.098;2023-02-28T02:02:39;4.55;;;3.53;;
48215;SDS011;34005;48.844;10.098;2023-02-28T02:05:11;5.68;;;4.00;;
48215;SDS011;34005;48.844;10.098;2023-02-28T02:07:42;5.80;;;4.10;;
48215;SDS011;34005;48.844;10.098;2023-02-28T02:10:13;4.97;;;3.80;;
48215;SDS011;34005;48.844;10.098;2023-02-28T02:12:50;4.18;;;3.78;;
48215;SDS011;34005;48.844;10.098;2023-02-28T02:15:34;5.32;;;3.83;;
48215;SDS011;34005;48.844;10.098;2023-02-28T02:18:09;6.32;;;3.90;;
48215;SDS011;34005;48.844;10.098;2023-02-28T02:21:02;7.00;;;4.15;;
48215;SDS011;34005;48.844;10.098;2023-02-28T02:29:56;5.03;;;4.35;;
48215;SDS011;34005;48.844;10.098;2023-02-28T02:35:55;6.05;;;4.03;;
48215;SDS011;34005;48.844;10.098;2023-02-28T02:38:28;7.43;;;4.63;;
48215;SDS011;34005;48.844;10.098;2023-02-28T02:41:03;6.18;;;4.47;;
48215;SDS011;34005;48.844;10.098;2023-02-28T02:43:36;5.50;;;4.45;;
48215;SDS011;34005;48.844;10.098;2023-02-28T02:46:09;7.78;;;5.40;;
48215;SDS011;34005;48.844;10.098;2023-02-28T02:48:42;6.88;;;4.70;;
48215;SDS011;34005;48.844;10.098;2023-02-28T02:51:14;6.35;;;4.38;;
48215;SDS011;34005;48.844;10.098;2023-02-28T02:53:46;5.30;;;3.88;;
48215;SDS011;34005;48.844;10.098;2023-02-28T02:56:17;7.70;;;3.95;;
48215;SDS011;34005;48.844;10.098;2023-02-28T02:58:48;6.78;;;4.18;;
48215;SDS011;34005;48.844;10.098;2023-02-28T03:01:19;5.78;;;4.43;;
48215;SDS011;34005;48.844;10.098;2023-02-28T03:03:55;6.40;;;4.65;;
48215;SDS011;34005;48.844;10.098;2023-02-28T03:06:26;7.85;;;5.10;;
48215;SDS011;34005;48.844;10.098;2023-02-28T03:08:54;7.13;;;4.15;;
48215;SDS011;34005;48.844;10.098;2023-02-28T03:11:21;6.40;;;5.07;;
48215;SDS011;34005;48.844;10.098;2023-02-28T03:14:08;6.88;;;4.22;;
48215;SDS011;34005;48.844;10.098;2023-02-28T03:16:54;5.57;;;4.40;;
48215;SDS011;34005;48.844;10.098;2023-02-28T03:19:34;6.47;;;4.75;;
48215;SDS011;34005;48.844;10.098;2023-02-28T03:22:18;7.18;;;5.03;;
48215;SDS011;34005;48.844;10.098;2023-02-28T03:24:54;5.63;;;4.65;;
48215;SDS011;34005;48.844;10.098;2023-02-28T03:27:29;8.35;;;5.20;;
48215;SDS011;34005;48.844;10.098;2023-02-28T03:29:58;7.13;;;5.10;;
48215;SDS011;34005;48.844;10.098;2023-02-28T03:32:32;9.60;;;4.82;;
48215;SDS011;34005;48.844;10.098;2023-02-28T03:35:05;5.60;;;4.30;;
48215;SDS011;34005;48.844;10.098;2023-02-28T03:37:38;8.20;;;4.25;;
48215;SDS011;34005;48.844;10.098;2023-02-28T03:42:40;7.70;;;4.95;;
48215;SDS011;34005;48.844;10.098;2023-02-28T03:45:12;5.77;;;4.47;;
48215;SDS011;34005;48.844;10.098;2023-02-28T03:47:45;6.65;;;4.80;;
48215;SDS011;34005;48.844;10.098;2023-02-28T03:50:18;6.80;;;4.38;;
48215;SDS011;34005;48.844;10.098;2023-02-28T03:52:51;7.45;;;5.30;;
48215;SDS011;34005;48.844;10.098;2023-02-28T03:55:27;7.78;;;4.97;;
48215;SDS011;34005;48.844;10.098;2023-02-28T03:57:58;5.47;;;4.50;;
48215;SDS011;34005;48.844;10.098;2023-02-28T04:00:33;6.28;;;4.25;;
48215;SDS011;34005;48.844;10.098;2023-02-28T04:03:04;7.28;;;5.03;;
48215;SDS011;34005;48.844;10.098;2023-02-28T04:05:32;8.43;;;5.40;;
48215;SDS011;34005;48.844;10.098;2023-02-28T04:08:05;7.25;;;4.95;;
48215;SDS011;34005;48.844;10.098;2023-02-28T04:10:36;7.60;;;5.45;;
48215;SDS011;34005;48.844;10.098;2023-02-28T04:13:03;7.28;;;5.28;;
48215;SDS011;34005;48.844;10.098;2023-02-28T04:15:31;7.35;;;4.90;;
48215;SDS011;34005;48.844;10.098;2023-02-28T04:17:58;9.45;;;6.30;;
48215;SDS011;34005;48.844;10.098;2023-02-28T04:20:26;8.85;;;5.20;;
48215;SDS011;34005;48.844;10.098;2023-02-28T04:22:54;8.82;;;5.25;;
48215;SDS011;34005;48.844;10.098;2023-02-28T04:25:22;8.10;;;5.70;;
48215;SDS011;34005;48.844;10.098;2023-02-28T04:27:50;9.93;;;6.10;;
48215;SDS011;34005;48.844;10.098;2023-02-28T04:30:18;9.32;;;6.65;;
48215;SDS011;34005;48.844;10.098;2023-02-28T04:32:46;8.65;;;6.13;;
48215;SDS011;34005;48.844;10.098;2023-02-28T04:35:14;7.55;;;5.43;;
48215;SDS011;34005;48.844;10.098;2023-02-28T04:37:42;7.57;;;5.78;;
48215;SDS011;34005;48.844;10.098;2023-02-28T04:40:10;8.25;;;5.80;;
48215;SDS011;34005;48.844;10.098;2023-02-28T04:42:39;7.85;;;6.05;;
48215;SDS011;34005;48.844;10.098;2023-02-28T04:45:09;10.25;;;6.47;;
48215;SDS011;34005;48.844;10.098;2023-02-28T04:47:37;8.65;;;5.85;;
48215;SDS011;34005;48.844;10.098;2023-02-28T04:50:04;7.97;;;6.10;;
48215;SDS011;34005;48.844;10.098;2023-02-28T04:52:32;9.75;;;6.72;;
48215;SDS011;34005;48.844;10.098;2023-02-28T04:55:00;8.43;;;6.00;;
48215;SDS011;34005;48.844;10.098;2023-02-28T04:57:27;7.63;;;6.05;;
48215;SDS011;34005;48.844;10.098;2023-02-28T04:59:57;10.38;;;6.05;;
48215;SDS011;34005;48.844;10.098;2023-02-28T05:02:25;9.52;;;6.60;;
48215;SDS011;34005;48.844;10.098;2023-02-28T05:04:52;9.95;;;6.85;;
48215;SDS011;34005;48.844;10.098;2023-02-28T05:07:20;8.60;;;6.00;;
48215;SDS011;34005;48.844;10.098;2023-02-28T05:09:47;9.30;;;6.90;;
48215;SDS011;34005;48.844;10.098;2023-02-28T05:12:15;9.05;;;6.80;;
48215;SDS011;34005;48.844;10.098;2023-02-28T05:14:43;9.60;;;7.28;;
48215;SDS011;34005;48.844;10.098;2023-02-28T05:17:12;10.98;;;7.53;;
48215;SDS011;34005;48.844;10.098;2023-02-28T05:19:39;8.82;;;6.35;;
48215;SDS011;34005;48.844;10.098;2023-02-28T05:22:11;8.95;;;6.30;;
48215;SDS011;34005;48.844;10.098;2023-02-28T05:24:40;8.77;;;6.63;;
48215;SDS011;34005;48.844;10.098;2023-02-28T05:27:09;9.23;;;7.32;;
48215;SDS011;34005;48.844;10.098;2023-02-28T05:29:37;9.95;;;7.28;;
48215;SDS011;34005;48.844;10.098;2023-02-28T05:32:12;11.15;;;7.85;;
48215;SDS011;34005;48.844;10.098;2023-02-28T05:34:40;10.00;;;7.18;;
48215;SDS011;34005;48.844;10.098;2023-02-28T05:37:10;9.75;;;7.53;;
48215;SDS011;34005;48.844;10.098;2023-02-28T05:39:39;13.23;;;7.97;;
48215;SDS011;34005;48.844;10.098;2023-02-28T05:42:07;10.45;;;7.00;;
48215;SDS011;34005;48.844;10.098;2023-02-28T05:44:35;11.05;;;7.97;;
48215;SDS011;34005;48.844;10.098;2023-02-28T05:47:03;12.68;;;7.70;;
48215;SDS011;34005;48.844;10.098;2023-02-28T05:49:32;8.35;;;6.53;;
48215;SDS011;34005;48.844;10.098;2023-02-28T05:52:00;9.80;;;7.57;;
48215;SDS011;34005;48.844;10.098;2023-02-28T05:54:28;10.38;;;7.53;;
48215;SDS011;34005;48.844;10.098;2023-02-28T05:56:55;12.10;;;7.75;;
48215;SDS011;34005;48.844;10.098;2023-02-28T05:59:23;12.57;;;7.60;;
48215;SDS011;34005;48.844;10.098;2023-02-28T06:01:50;10.52;;;7.75;;
48215;SDS011;34005;48.844;10.098;2023-02-28T06:04:19;10.35;;;7.00;;
48215;SDS011;34005;48.844;10.098;2023-02-28T06:06:58;10.75;;;7.32;;
48215;SDS011;34005;48.844;10.098;2023-02-28T06:09:26;10.85;;;7.00;;
48215;SDS011;34005;48.844;10.098;2023-02-28T06:11:54;12.98;;;8.73;;
48215;SDS011;34005;48.844;10.098;2023-02-28T06:14:21;11.88;;;7.70;;
48215;SDS011;34005;48.844;10.098;2023-02-28T06:16:49;11.13;;;7.32;;
48215;SDS011;34005;48.844;10.098;2023-02-28T06:19:16;14.35;;;7.82;;
48215;SDS011;34005;48.844;10.098;2023-02-28T06:21:44;14.85;;;9.07;;
48215;SDS011;34005;48.844;10.098;2023-02-28T06:24:13;11.10;;;7.28;;
48215;SDS011;34005;48.844;10.098;2023-02-28T06:26:41;12.70;;;7.57;;
48215;SDS011;34005;48.844;10.098;2023-02-28T06:29:08;10.35;;;7.53;;
48215;SDS011;34005;48.844;10.098;2023-02-28T06:31:37;12.13;;;8.05;;
48215;SDS011;34005;48.844;10.098;2023-02-28T06:34:05;14.13;;;7.97;;
48215;SDS011;34005;48.844;10.098;2023-02-28T06:36:33;11.98;;;8.55;;
48215;SDS011;34005;48.844;10.098;2023-02-28T06:39:00;10.73;;;7.68;;
48215;SDS011;34005;48.844;10.098;2023-02-28T06:41:29;11.52;;;7.93;;
48215;SDS011;34005;48.844;10.098;2023-02-28T06:44:17;11.68;;;7.90;;
48215;SDS011;34005;48.844;10.098;2023-02-28T06:46:45;11.52;;;7.68;;
48215;SDS011;34005;48.844;10.098;2023-02-28T06:49:13;13.20;;;8.15;;
48215;SDS011;34005;48.844;10.098;2023-02-28T06:51:41;11.25;;;7.97;;
48215;SDS011;34005;48.844;10.098;2023-02-28T06:54:11;13.95;;;8.32;;
48215;SDS011;34005;48.844;10.098;2023-02-28T06:56:40;11.98;;;7.72;;
48215;SDS011;34005;48.844;10.098;2023-02-28T06:59:08;15.05;;;8.57;;
48215;SDS011;34005;48.844;10.098;2023-02-28T07:01:35;13.20;;;8.48;;
48215;SDS011;34005;48.844;10.098;2023-02-28T07:04:05;9.48;;;7.00;;
48215;SDS011;34005;48.844;10.098;2023-02-28T07:06:33;12.88;;;9.25;;
48215;SDS011;34005;48.844;10.098;2023-02-28T07:09:00;11.35;;;7.50;;
48215;SDS011;34005;48.844;10.098;2023-02-28T07:11:28;12.23;;;8.23;;
48215;SDS011;34005;48.844;10.098;2023-02-28T07:13:57;13.50;;;8.85;;
48215;SDS011;34005;48.844;10.098;2023-02-28T07:16:25;11.70;;;8.05;;
48215;SDS011;34005;48.844;10.098;2023-02-28T07:18:53;10.07;;;7.40;;
48215;SDS011;34005;48.844;10.098;2023-02-28T07:21:21;11.05;;;7.45;;
48215;SDS011;34005;48.844;10.098;2023-02-28T07:23:49;14.23;;;10.18;;
48215;SDS011;34005;48.844;10.098;2023-02-28T07:26:17;13.60;;;9.05;;
48215;SDS011;34005;48.844;10.098;2023-02-28T07:28:46;13.07;;;8.88;;
48215;SDS011;34005;48.844;10.098;2023-02-28T07:31:17;12.75;;;8.95;;
48215;SDS011;34005;48.844;10.098;2023-02-28T07:33:45;19.55;;;8.88;;
48215;SDS011;34005;48.844;10.098;2023-02-28T07:36:13;14.50;;;8.80;;
48215;SDS011;34005;48.844;10.098;2023-02-28T07:38:43;13.43;;;8.82;;
48215;SDS011;34005;48.844;10.098;2023-02-28T07:41:14;14.32;;;8.57;;
48215;SDS011;34005;48.844;10.098;2023-02-28T07:43:42;13.93;;;8.30;;
48215;SDS011;34005;48.844;10.098;2023-02-28T07:46:11;11.48;;;8.50;;
48215;SDS011;34005;48.844;10.098;2023-02-28T07:48:43;13.05;;;9.55;;
48215;SDS011;34005;48.844;10.098;2023-02-28T07:51:11;11.88;;;8.38;;
48215;SDS011;34005;48.844;10.098;2023-02-28T07:53:40;13.88;;;9.27;;
48215;SDS011;34005;48.844;10.098;2023-02-28T07:56:07;11.48;;;8.20;;
48215;SDS011;34005;48.844;10.098;2023-02-28T07:58:36;10.75;;;7.63;;
48215;SDS011;34005;48.844;10.098;2023-02-28T08:01:04;11.88;;;9.25;;
48215;SDS011;34005;48.844;10.098;2023-02-28T08:03:32;13.18;;;8.45;;
48215;SDS011;34005;48.844;10.098;2023-02-28T08:06:02;11.02;;;7.72;;
48215;SDS011;34005;48.844;10.098;2023-02-28T08:08:30;15.43;;;8.85;;
48215;SDS011;34005;48.844;10.098;2023-02-28T08:10:59;10.88;;;7.70;;
48215;SDS011;34005;48.844;10.098;2023-02-28T08:13:27;11.48;;;7.70;;
48215;SDS011;34005;48.844;10.098;2023-02-28T08:15:55;16.58;;;10.30;;
48215;SDS011;34005;48.844;10.098;2023-02-28T08:18:23;11.48;;;8.13;;
48215;SDS011;34005;48.844;10.098;2023-02-28T08:20:51;11.98;;;7.90;;
48215;SDS011;34005;48.844;10.098;2023-02-28T08:23:20;12.27;;;7.90;;
48215;SDS011;34005;48.844;10.098;2023-02-28T08:25:52;11.18;;;8.18;;
48215;SDS011;34005;48.844;10.098;2023-02-28T08:28:20;9.90;;;8.02;;
48215;SDS011;34005;48.844;10.098;2023-02-28T08:30:50;10.25;;;7.85;;
48215;SDS011;34005;48.844;10.098;2023-02-28T08:33:18;11.85;;;8.07;;
48215;SDS011;34005;48.844;10.098;2023-02-28T08:35:45;11.07;;;7.88;;
48215;SDS011;34005;48.844;10.098;2023-02-28T08:38:13;10.68;;;7.53;;
48215;SDS011;34005;48.844;10.098;2023-02-28T08:40:42;16.08;;;9.70;;
48215;SDS011;34005;48.844;10.098;2023-02-28T08:43:10;12.32;;;8.75;;
48215;SDS011;34005;48.844;10.098;2023-02-28T08:45:37;10.25;;;8.30;;
48215;SDS011;34005;48.844;10.098;2023-02-28T08:48:05;11.23;;;8.13;;
48215;SDS011;34005;48.844;10.098;2023-02-28T08:50:33;11.85;;;9.07;;
48215;SDS011;34005;48.844;10.098;2023-02-28T08:53:00;13.35;;;8.98;;
48215;SDS011;34005;48.844;10.098;2023-02-28T08:55:28;11.10;;;8.48;;
48215;SDS011;34005;48.844;10.098;2023-02-28T08:57:57;11.43;;;8.02;;
48215;SDS011;34005;48.844;10.098;2023-02-28T09:00:25;12.50;;;8.25;;
48215;SDS011;34005;48.844;10.098;2023-02-28T09:02:53;10.68;;;8.80;;
48215;SDS011;34005;48.844;10.098;2023-02-28T09:05:20;15.50;;;10.68;;
48215;SDS011;34005;48.844;10.098;2023-02-28T09:07:49;15.82;;;8.63;;
48215;SDS011;34005;48.844;10.098;2023-02-28T09:10:16;10.70;;;8.60;;
48215;SDS011;34005;48.844;10.098;2023-02-28T09:12:44;12.13;;;7.97;;
48215;SDS011;34005;48.844;10.098;2023-02-28T09:15:14;11.88;;;8.10;;
48215;SDS011;34005;48.844;10.098;2023-02-28T09:17:42;11.15;;;7.85;;
48215;SDS011;34005;48.844;10.098;2023-02-28T09:20:13;11.80;;;8.32;;
48215;SDS011;34005;48.844;10.098;2023-02-28T09:22:40;11.40;;;8.20;;
48215;SDS011;34005;48.844;10.098;2023-02-28T09:25:08;11.07;;;7.90;;
48215;SDS011;34005;48.844;10.098;2023-02-28T09:27:35;21.20;;;11.73;;
48215;SDS011;34005;48.844;10.098;2023-02-28T09:30:03;14.05;;;8.60;;
48215;SDS011;34005;48.844;10.098;2023-02-28T09:32:33;11.27;;;8.35;;
48215;SDS011;34005;48.844;10.098;2023-02-28T09:35:00;11.88;;;8.45;;
48215;SDS011;34005;48.844;10.098;2023-02-28T09:37:28;14.57;;;9.82;;
48215;SDS011;34005;48.844;10.098;2023-02-28T09:39:57;10.13;;;7.55;;
48215;SDS011;34005;48.844;10.098;2023-02-28T09:42:25;10.30;;;7.85;;
48215;SDS011;34005;48.844;10.098;2023-02-28T09:44:57;10.13;;;7.35;;
48215;SDS011;34005;48.844;10.098;2023-02-28T09:47:29;32.47;;;10.60;;
48215;SDS011;34005;48.844;10.098;2023-02-28T09:50:03;29.55;;;10.55;;
48215;SDS011;34005;48.844;10.098;2023-02-28T09:52:38;11.43;;;8.00;;
48215;SDS011;34005;48.844;10.098;2023-02-28T09:55:15;12.40;;;8.65;;
48215;SDS011;34005;48.844;10.098;2023-02-28T09:57:49;12.52;;;8.38;;
48215;SDS011;34005;48.844;10.098;2023-02-28T10:00:18;12.70;;;8.40;;
48215;SDS011;34005;48.844;10.098;2023-02-28T10:03:04;10.73;;;8.43;;
48215;SDS011;34005;48.844;10.098;2023-02-28T10:05:47;10.80;;;8.43;;
48215;SDS011;34005;48.844;10.098;2023-02-28T10:08:21;12.02;;;8.85;;
48215;SDS011;34005;48.844;10.098;2023-02-28T10:10:53;10.95;;;8.27;;
48215;SDS011;34005;48.844;10.098;2023-02-28T10:13:25;10.32;;;8.07;;
48215;SDS011;34005;48.844;10.098;2023-02-28T10:16:00;10.38;;;7.72;;
48215;SDS011;34005;48.844;10.098;2023-02-28T10:18:32;11.20;;;7.30;;
48215;SDS011;34005;48.844;10.098;2023-02-28T10:21:10;11.63;;;8.15;;
48215;SDS011;34005;48.844;10.098;2023-02-28T10:23:46;11.55;;;8.02;;
48215;SDS011;34005;48.844;10.098;2023-02-28T10:26:17;10.88;;;8.50;;
48215;SDS011;34005;48.844;10.098;2023-02-28T10:28:45;10.90;;;8.05;;
48215;SDS011;34005;48.844;10.098;2023-02-28T10:31:14;12.35;;;8.15;;
48215;SDS011;34005;48.844;10.098;2023-02-28T10:33:45;9.23;;;7.72;;
48215;SDS011;34005;48.844;10.098;2023-02-28T10:36:17;10.93;;;8.35;;
48215;SDS011;34005;48.844;10.098;2023-02-28T10:38:47;11.63;;;7.97;;
48215;SDS011;34005;48.844;10.098;2023-02-28T10:41:15;10.23;;;7.47;;
48215;SDS011;34005;48.844;10.098;2023-02-28T10:43:53;9.85;;;7.47;;
48215;SDS011;34005;48.844;10.098;2023-02-28T10:46:40;12.25;;;7.63;;
48215;SDS011;34005;48.844;10.098;2023-02-28T10:49:13;11.00;;;7.57;;
48215;SDS011;34005;48.844;10.098;2023-02-28T10:51:45;12.68;;;8.00;;
48215;SDS011;34005;48.844;10.098;2023-02-28T10:54:16;12.57;;;8.32;;
48215;SDS011;34005;48.844;10.098;2023-02-28T10:56:46;11.82;;;7.57;;
48215;SDS011;34005;48.844;10.098;2023-02-28T10:59:33;13.63;;;8.48;;
48215;SDS011;34005;48.844;10.098;2023-02-28T11:02:00;12.77;;;8.20;;
48215;SDS011;34005;48.844;10.098;2023-02-28T11:04:35;10.00;;;7.57;;
48215;SDS011;34005;48.844;10.098;2023-02-28T11:07:20;10.57;;;7.53;;
48215;SDS011;34005;48.844;10.098;2023-02-28T11:09:51;10.50;;;7.97;;
48215;SDS011;34005;48.844;10.098;2023-02-28T11:12:21;10.63;;;8.50;;
48215;SDS011;34005;48.844;10.098;2023-02-28T11:14:51;9.45;;;8.18;;
48215;SDS011;34005;48.844;10.098;2023-02-28T11:17:21;13.45;;;8.00;;
48215;SDS011;34005;48.844;10.098;2023-02-28T11:19:50;10.15;;;7.25;;
48215;SDS011;34005;48.844;10.098;2023-02-28T11:22:23;10.30;;;7.75;;
48215;SDS011;34005;48.844;10.098;2023-02-28T11:24:55;10.50;;;7.70;;
48215;SDS011;34005;48.844;10.098;2023-02-28T11:27:26;9.15;;;7.15;;
48215;SDS011;34005;48.844;10.098;2023-02-28T11:30:24;8.48;;;6.90;;
48215;SDS011;34005;48.844;10.098;2023-02-28T11:32:57;8.73;;;7.10;;
48215;SDS011;34005;48.844;10.098;2023-02-28T11:35:27;8.27;;;7.35;;
48215;SDS011;34005;48.844;10.098;2023-02-28T11:37:59;10.00;;;7.03;;
48215;SDS011;34005;48.844;10.098;2023-02-28T11:40:29;8.93;;;7.05;;
48215;SDS011;34005;48.844;10.098;2023-02-28T11:43:04;12.35;;;8.10;;
48215;SDS011;34005;48.844;10.098;2023-02-28T11:45:43;10.57;;;7.38;;
48215;SDS011;34005;48.844;10.098;2023-02-28T11:48:20;13.57;;;7.68;;
48215;SDS011;34005;48.844;10.098;2023-02-28T11:50:52;9.52;;;7.22;;
48215;SDS011;34005;48.844;10.098;2023-02-28T11:53:38;8.77;;;7.07;;
48215;SDS011;34005;48.844;10.098;2023-02-28T11:56:17;9.13;;;6.63;;
48215;SDS011;34005;48.844;10.098;2023-02-28T11:58:52;8.88;;;7.00;;
48215;SDS011;34005;48.844;10.098;2023-02-28T12:01:38;9.43;;;7.90;;
48215;SDS011;34005;48.844;10.098;2023-02-28T12:04:24;8.95;;;6.85;;
48215;SDS011;34005;48.844;10.098;2023-02-28T12:07:00;9.38;;;6.43;;
48215;SDS011;34005;48.844;10.098;2023-02-28T12:09:40;9.18;;;7.22;;
48215;SDS011;34005;48.844;10.098;2023-02-28T12:12:18;10.13;;;7.00;;
48215;SDS011;34005;48.844;10.098;2023-02-28T12:15:00;10.25;;;6.95;;
48215;SDS011;34005;48.844;10.098;2023-02-28T12:17:51;7.97;;;6.65;;
48215;SDS011;34005;48.844;10.098;2023-02-28T12:20:33;11.52;;;8.18;;
48215;SDS011;34005;48.844;10.098;2023-02-28T12:23:19;13.20;;;9.35;;
48215;SDS011;34005;48.844;10.098;2023-02-28T12:26:03;17.67;;;9.98;;
48215;SDS011;34005;48.844;10.098;2023-02-28T12:28:41;9.32;;;7.40;;
48215;SDS011;34005;48.844;10.098;2023-02-28T12:31:14;11.40;;;8.10;;
48215;SDS011;34005;48.844;10.098;2023-02-28T12:33:50;10.93;;;8.85;;
48215;SDS011;34005;48.844;10.098;2023-02-28T12:36:20;11.68;;;8.00;;
48215;SDS011;34005;48.844;10.098;2023-02-28T12:38:51;11.20;;;7.97;;
48215;SDS011;34005;48.844;10.098;2023-02-28T12:41:25;9.95;;;7.38;;
48215;SDS011;34005;48.844;10.098;2023-02-28T12:43:57;12.02;;;7.30;;
48215;SDS011;34005;48.844;10.098;2023-02-28T12:46:30;9.50;;;6.68;;
48215;SDS011;34005;48.844;10.098;2023-02-28T12:49:02;10.68;;;7.15;;
48215;SDS011;34005;48.844;10.098;2023-02-28T12:51:35;11.13;;;8.57;;
48215;SDS011;34005;48.844;10.098;2023-02-28T12:54:07;13.25;;;8.43;;
48215;SDS011;34005;48.844;10.098;2023-02-28T12:56:45;12.38;;;9.32;;
48215;SDS011;34005;48.844;10.098;2023-02-28T12:59:22;12.93;;;9.23;;
48215;SDS011;34005;48.844;10.098;2023-02-28T13:11:24;9.05;;;7.38;;
48215;SDS011;34005;48.844;10.098;2023-02-28T13:13:58;11.13;;;7.70;;
48215;SDS011;34005;48.844;10.098;2023-02-28T13:16:27;11.00;;;8.43;;
48215;SDS011;34005;48.844;10.098;2023-02-28T13:19:08;11.50;;;7.95;;
48215;SDS011;34005;48.844;10.098;2023-02-28T13:21:43;11.40;;;8.27;;
48215;SDS011;34005;48.844;10.098;2023-02-28T13:24:35;12.32;;;8.57;;
48215;SDS011;34005;48.844;10.098;2023-02-28T13:33:28;11.75;;;8.52;;
48215;SDS011;34005;48.844;10.098;2023-02-28T13:36:06;10.82;;;7.75;;
48215;SDS011;34005;48.844;10.098;2023-02-28T13:38:37;13.57;;;9.80;;
48215;SDS011;34005;48.844;10.098;2023-02-28T13:44:10;12.38;;;7.93;;
48215;SDS011;34005;48.844;10.098;2023-02-28T13:49:49;13.90;;;8.70;;
48215;SDS011;34005;48.844;10.098;2023-02-28T13:52:20;9.07;;;7.35;;
48215;SDS011;34005;48.844;10.098;2023-02-28T13:54:52;12.02;;;8.63;;
48215;SDS011;34005;48.844;10.098;2023-02-28T13:57:28;11.13;;;7.45;;
48215;SDS011;34005;48.844;10.098;2023-02-28T14:00:07;9.85;;;7.72;;
48215;SDS011;34005;48.844;10.098;2023-02-28T14:02:52;11.60;;;8.80;;
48215;SDS011;34005;48.844;10.098;2023-02-28T14:05:43;13.13;;;8.57;;
48215;SDS011;34005;48.844;10.098;2023-02-28T14:08:12;10.60;;;8.32;;
48215;SDS011;34005;48.844;10.098;2023-02-28T14:10:44;12.20;;;8.63;;
48215;SDS011;34005;48.844;10.098;2023-02-28T14:16:11;8.88;;;7.05;;
48215;SDS011;34005;48.844;10.098;2023-02-28T14:18:41;11.40;;;8.57;;
48215;SDS011;34005;48.844;10.098;2023-02-28T14:21:22;14.05;;;8.38;;
48215;SDS011;34005;48.844;10.098;2023-02-28T14:26:56;11.07;;;7.97;;
48215;SDS011;34005;48.844;10.098;2023-02-28T14:29:37;13.10;;;7.90;;
48215;SDS011;34005;48.844;10.098;2023-02-28T14:32:26;10.75;;;8.30;;
48215;SDS011;34005;48.844;10.098;2023-02-28T14:35:02;12.75;;;8.30;;
48215;SDS011;34005;48.844;10.098;2023-02-28T14:37:41;12.75;;;8.18;;
48215;SDS011;34005;48.844;10.098;2023-02-28T14:40:13;13.30;;;8.63;;
48215;SDS011;34005;48.844;10.098;2023-02-28T14:42:47;9.98;;;7.80;;
48215;SDS011;34005;48.844;10.098;2023-02-28T14:45:22;10.98;;;6.97;;
48215;SDS011;34005;48.844;10.098;2023-02-28T14:47:50;10.63;;;8.25;;
48215;SDS011;34005;48.844;10.098;2023-02-28T14:50:19;11.32;;;9.20;;
48215;SDS011;34005;48.844;10.098;2023-02-28T14:52:52;13.80;;;9.70;;
48215;SDS011;34005;48.844;10.098;2023-02-28T14:55:23;11.48;;;8.07;;
48215;SDS011;34005;48.844;10.098;2023-02-28T14:57:53;12.63;;;8.82;;
48215;SDS011;34005;48.844;10.098;2023-02-28T15:00:23;11.10;;;8.05;;
48215;SDS011;34005;48.844;10.098;2023-02-28T15:02:52;13.75;;;8.45;;
48215;SDS011;34005;48.844;10.098;2023-02-28T15:05:28;10.15;;;8.40;;
48215;SDS011;34005;48.844;10.098;2023-02-28T15:08:02;10.90;;;8.90;;
48215;SDS011;34005;48.844;10.098;2023-02-28T15:10:40;10.45;;;7.88;;
48215;SDS011;34005;48.844;10.098;2023-02-28T15:13:11;11.90;;;7.93;;
48215;SDS011;34005;48.844;10.098;2023-02-28T15:15:45;11.80;;;8.32;;
48215;SDS011;34005;48.844;10.098;2023-02-28T15:18:31;12.82;;;8.35;;
48215;SDS011;34005;48.844;10.098;2023-02-28T15:21:06;11.00;;;7.78;;
48215;SDS011;34005;48.844;10.098;2023-02-28T15:23:39;8.93;;;7.18;;
48215;SDS011;34005;48.844;10.098;2023-02-28T15:26:09;10.80;;;8.93;;
48215;SDS011;34005;48.844;10.098;2023-02-28T15:28:41;13.10;;;8.13;;
48215;SDS011;34005;48.844;10.098;2023-02-28T15:31:17;9.98;;;7.72;;